createdAt,value
2022-10-01T00:00:32.127Z,98223.63
2022-10-01T00:03:33.723Z,98215.84
2022-10-01T00:06:35.113Z,98206.28
2022-10-01T00:09:36.483Z,98203.72
2022-10-01T00:12:38.286Z,98220.16
2022-10-01T00:15:40.530Z,98215.03
2022-10-01T00:18:42.408Z,98195.19
2022-10-01T00:21:43.926Z,98215.94
2022-10-01T00:24:47.219Z,98205.59
2022-10-01T00:27:49.260Z,98203.00
2022-10-01T00:30:50.699Z,98217.75
2022-10-01T00:33:52.786Z,98216.91
2022-10-01T00:36:54.713Z,98222.94
2022-10-01T00:39:56.100Z,98229.03
2022-10-01T00:42:57.450Z,98225.56
2022-10-01T00:46:00.185Z,98227.28
2022-10-01T00:49:02.652Z,98222.97
2022-10-01T00:52:05.496Z,98227.25
2022-10-01T00:55:08.692Z,98216.03
2022-10-01T00:58:10.408Z,98216.03
2022-10-01T01:01:11.836Z,98207.41
2022-10-01T01:04:19.127Z,98210.88
2022-10-01T01:07:20.451Z,98210.88
2022-10-01T01:10:28.098Z,98207.44
2022-10-01T01:13:35.601Z,98197.97
2022-10-01T01:16:39.082Z,98185.06
2022-10-01T01:19:43.509Z,98191.19
2022-10-01T01:22:48.381Z,98201.56
2022-10-01T01:26:08.033Z,98190.34
2022-10-01T01:29:11.357Z,98177.47
2022-10-01T01:32:14.953Z,98156.69
2022-10-01T01:35:31.102Z,98160.19
2022-10-01T01:38:38.918Z,98158.47
2022-10-01T01:41:41.299Z,98160.97
2022-10-01T01:44:44.081Z,98153.22
2022-10-01T01:47:45.492Z,98146.38
2022-10-01T01:50:53.070Z,98127.34
2022-10-01T01:53:54.413Z,98127.38
2022-10-01T01:56:56.322Z,98123.06
2022-10-01T01:59:57.707Z,98121.34
2022-10-01T02:02:59.200Z,98121.34
2022-10-01T02:06:03.615Z,98118.75
2022-10-01T02:09:15.566Z,98121.38
2022-10-01T02:12:38.416Z,98123.97
2022-10-01T02:15:39.795Z,98123.09
2022-10-01T02:18:53.213Z,98130.03
2022-10-01T02:22:01.537Z,98112.56
2022-10-01T02:25:03.482Z,98113.25
2022-10-01T02:28:06.758Z,98124.44
2022-10-01T02:31:08.233Z,98131.38
2022-10-01T02:34:12.497Z,98138.38
2022-10-01T02:37:14.463Z,98153.09
2022-10-01T02:40:16.427Z,98150.50
2022-10-01T02:43:18.789Z,98144.44
2022-10-01T02:46:21.936Z,98140.06
2022-10-01T02:49:26.366Z,98138.31
2022-10-01T02:52:42.962Z,98146.06
2022-10-01T02:55:44.338Z,98140.00
2022-10-01T02:58:45.807Z,98166.91
2022-10-01T03:01:47.257Z,98173.06
2022-10-01T03:04:48.661Z,98175.59
2022-10-01T03:07:50.046Z,98171.28
2022-10-01T03:10:51.384Z,98173.00
2022-10-01T03:13:53.790Z,98168.69
2022-10-01T03:16:55.143Z,98160.00
2022-10-01T03:19:56.499Z,98160.84
2022-10-01T03:22:57.937Z,98159.97
2022-10-01T03:25:59.286Z,98160.81
2022-10-01T03:29:00.658Z,98150.41
2022-10-01T03:32:01.975Z,98157.31
2022-10-01T03:35:03.417Z,98149.47
2022-10-01T03:38:04.902Z,98153.84
2022-10-01T03:41:06.302Z,98158.16
2022-10-01T03:44:07.661Z,98156.44
2022-10-01T03:47:09.809Z,98160.75
2022-10-01T03:50:11.204Z,98157.25
2022-10-01T03:53:12.701Z,98158.16
2022-10-01T03:56:14.501Z,98156.38
2022-10-01T03:59:15.913Z,98167.59
2022-10-01T04:02:17.352Z,98164.09
2022-10-01T04:05:18.797Z,98156.97
2022-10-01T04:08:24.190Z,98150.84
2022-10-01T04:11:25.962Z,98149.09
2022-10-01T04:14:27.301Z,98146.47
2022-10-01T04:17:28.930Z,98131.69
2022-10-01T04:20:30.962Z,98147.31
2022-10-01T04:23:32.315Z,98150.66
2022-10-01T04:26:33.655Z,98155.94
2022-10-01T04:29:39.990Z,98153.38
2022-10-01T04:32:41.613Z,98169.88
2022-10-01T04:35:43.534Z,98169.78
2022-10-01T04:38:44.909Z,98170.66
2022-10-01T04:41:46.264Z,98162.78
2022-10-01T04:44:47.653Z,98155.81
2022-10-01T04:47:52.595Z,98157.56
2022-10-01T04:50:53.926Z,98161.09
2022-10-01T04:53:55.776Z,98159.28
2022-10-01T04:56:58.332Z,98148.00
2022-10-01T04:59:59.826Z,98151.44
2022-10-01T05:03:01.193Z,98141.94
2022-10-01T05:06:02.568Z,98154.16
2022-10-01T05:09:03.986Z,98142.09
2022-10-01T05:12:06.287Z,98135.28
2022-10-01T05:15:07.899Z,98139.72
2022-10-01T05:18:09.292Z,98131.09
2022-10-01T05:21:11.614Z,98116.41
2022-10-01T05:24:12.976Z,98117.34
2022-10-01T05:27:14.390Z,98126.03
2022-10-01T05:30:24.213Z,98115.69
2022-10-01T05:33:26.771Z,98104.44
2022-10-01T05:36:28.170Z,98105.28
2022-10-01T05:39:29.882Z,98106.09
2022-10-01T05:42:31.230Z,98104.41
2022-10-01T05:45:32.675Z,98101.78
2022-10-01T05:48:37.702Z,98084.44
2022-10-01T05:51:39.313Z,98091.38
2022-10-01T05:54:41.140Z,98065.31
2022-10-01T05:57:42.486Z,98067.03
2022-10-01T06:00:43.923Z,98061.84
2022-10-01T06:03:45.375Z,98069.66
2022-10-01T06:06:46.897Z,98073.97
2022-10-01T06:09:48.673Z,98056.69
2022-10-01T06:12:50.064Z,98052.31
2022-10-01T06:15:51.727Z,98036.69
2022-10-01T06:18:57.446Z,98060.97
2022-10-01T06:21:58.829Z,98057.53
2022-10-01T06:25:00.668Z,98074.88
2022-10-01T06:28:02.077Z,98057.53
2022-10-01T06:31:03.506Z,98062.69
2022-10-01T06:34:04.876Z,98056.66
2022-10-01T06:37:06.230Z,98040.13
2022-10-01T06:40:07.745Z,98073.97
2022-10-01T06:43:09.249Z,98053.97
2022-10-01T06:46:11.169Z,98053.16
2022-10-01T06:49:13.804Z,98068.78
2022-10-01T06:52:33.845Z,98065.28
2022-10-01T06:55:35.330Z,98048.81
2022-10-01T06:58:37.411Z,98047.03
2022-10-01T07:01:39.121Z,98045.31
2022-10-01T07:04:41.255Z,98015.78
2022-10-01T07:07:43.425Z,98043.59
2022-10-01T07:10:45.538Z,98033.19
2022-10-01T07:13:49.065Z,98043.56
2022-10-01T07:16:53.743Z,98007.94
2022-10-01T07:19:55.240Z,98029.69
2022-10-01T07:22:57.124Z,98033.16
2022-10-01T07:25:58.965Z,98025.34
2022-10-01T07:29:00.327Z,98017.53
2022-10-01T07:32:01.800Z,98030.56
2022-10-01T07:35:03.584Z,98025.38
2022-10-01T07:38:08.101Z,98056.59
2022-10-01T07:41:09.585Z,98024.44
2022-10-01T07:44:13.933Z,98054.91
2022-10-01T07:47:15.269Z,98045.34
2022-10-01T07:50:16.733Z,98058.34
2022-10-01T07:53:18.413Z,98014.94
2022-10-01T07:56:19.744Z,98035.81
2022-10-01T07:59:21.851Z,98049.69
2022-10-01T08:02:23.254Z,98050.56
2022-10-01T08:05:25.577Z,98061.84
2022-10-01T08:08:26.939Z,98058.38
2022-10-01T08:11:28.275Z,98080.09
2022-10-01T08:14:30.356Z,98066.16
2022-10-01T08:17:31.746Z,98067.88
2022-10-01T08:20:33.070Z,98069.63
2022-10-01T08:23:34.553Z,98066.13
2022-10-01T08:26:35.890Z,98049.63
2022-10-01T08:29:37.271Z,98058.28
2022-10-01T08:32:38.630Z,98039.16
2022-10-01T08:35:40.354Z,98059.97
2022-10-01T08:38:44.394Z,98059.06
2022-10-01T08:41:53.502Z,98055.53
2022-10-01T08:44:54.862Z,98056.44
2022-10-01T08:47:58.669Z,98041.69
2022-10-01T08:51:03.904Z,98042.56
2022-10-01T08:54:10.317Z,98044.28
2022-10-01T08:57:12.815Z,98037.31
2022-10-01T09:00:14.564Z,98053.00
2022-10-01T09:03:15.997Z,98046.06
2022-10-01T09:06:25.377Z,98038.25
2022-10-01T09:09:36.185Z,98044.31
2022-10-01T09:12:43.357Z,98055.59
2022-10-01T09:15:44.690Z,98048.56
2022-10-01T09:19:07.536Z,98052.03
2022-10-01T09:22:17.075Z,98056.34
2022-10-01T09:25:22.570Z,98052.91
2022-10-01T09:28:24.898Z,98041.63
2022-10-01T09:31:27.316Z,98039.00
2022-10-01T09:34:30.685Z,98038.97
2022-10-01T09:37:40.899Z,98040.72
2022-10-01T09:40:53.444Z,98036.31
2022-10-01T09:43:54.799Z,98035.31
2022-10-01T09:46:56.119Z,98032.63
2022-10-01T09:49:58.008Z,98042.09
2022-10-01T09:53:00.224Z,98030.72
2022-10-01T09:56:19.310Z,98057.63
2022-10-01T09:59:22.535Z,98068.09
2022-10-01T10:02:25.720Z,98073.38
2022-10-01T10:05:27.714Z,98068.09
2022-10-01T10:08:33.753Z,98067.28
2022-10-01T10:11:35.602Z,98068.97
2022-10-01T10:14:37.951Z,98066.34
2022-10-01T10:17:41.164Z,98061.09
2022-10-01T10:20:44.069Z,98069.75
2022-10-01T10:23:49.336Z,98082.78
2022-10-01T10:26:56.586Z,98091.44
2022-10-01T10:30:01.681Z,98082.69
2022-10-01T10:33:04.140Z,98077.34
2022-10-01T10:36:05.673Z,98090.34
2022-10-01T10:39:07.215Z,98099.00
2022-10-01T10:42:08.635Z,98093.66
2022-10-01T10:45:14.650Z,98097.88
2022-10-01T10:48:17.003Z,98103.06
2022-10-01T10:51:18.484Z,98111.72
2022-10-01T10:54:20.855Z,98117.84
2022-10-01T10:57:29.162Z,98127.38
2022-10-01T11:00:30.496Z,98129.94
2022-10-01T11:03:32.064Z,98141.16
2022-10-01T11:06:33.699Z,98142.91
2022-10-01T11:09:47.586Z,98142.13
2022-10-01T11:12:56.407Z,98135.13
2022-10-01T11:16:13.639Z,98123.88
2022-10-01T11:19:33.995Z,98130.81
2022-10-01T11:22:35.320Z,98140.41
2022-10-01T11:25:41.450Z,98130.78
2022-10-01T11:28:45.123Z,98154.25
2022-10-01T11:31:49.673Z,98142.84
2022-10-01T11:34:51.119Z,98147.09
2022-10-01T11:37:59.850Z,98153.91
2022-10-01T11:41:03.948Z,98145.13
2022-10-01T11:44:05.577Z,98160.75
2022-10-01T11:47:06.866Z,98171.97
2022-10-01T11:50:13.185Z,98185.75
2022-10-01T11:53:17.608Z,98180.34
2022-10-01T11:56:50.933Z,98184.63
2022-10-01T11:59:56.749Z,98184.50
2022-10-01T12:02:58.832Z,98179.13
2022-10-01T12:06:00.176Z,98183.25
2022-10-01T12:09:06.362Z,98179.72
2022-10-01T12:12:09.102Z,98194.41
2022-10-01T12:15:13.697Z,98185.63
2022-10-01T12:18:17.874Z,98189.00
2022-10-01T12:21:23.768Z,98180.91
2022-10-01T12:24:27.470Z,98203.78
2022-10-01T12:27:31.301Z,98200.16
2022-10-01T12:30:35.810Z,98207.22
2022-10-01T12:33:37.131Z,98203.59
2022-10-01T12:36:41.490Z,98208.53
2022-10-01T12:40:10.248Z,98201.88
2022-10-01T12:43:30.377Z,98218.84
2022-10-01T12:46:31.823Z,98211.94
2022-10-01T12:49:46.010Z,98211.38
2022-10-01T12:52:50.349Z,98219.47
2022-10-01T12:55:56.939Z,98218.91
2022-10-01T12:59:04.196Z,98225.88
2022-10-01T13:02:07.520Z,98230.75
2022-10-01T13:05:19.918Z,98223.69
2022-10-01T13:08:38.143Z,98234.09
2022-10-01T13:11:48.574Z,98238.56
2022-10-01T13:14:50.105Z,98239.13
2022-10-01T13:18:11.688Z,98241.84
2022-10-01T13:21:19.148Z,98241.84
2022-10-01T13:24:32.840Z,98246.34
2022-10-01T13:27:42.350Z,98248.84
2022-10-01T13:30:53.464Z,98241.88
2022-10-01T13:33:55.819Z,98252.25
2022-10-01T13:36:57.219Z,98258.28
2022-10-01T13:39:58.774Z,98253.84
2022-10-01T13:43:03.597Z,98250.38
2022-10-01T13:46:06.078Z,98250.16
2022-10-01T13:49:08.137Z,98254.56
2022-10-01T13:52:19.211Z,98262.41
2022-10-01T13:55:27.880Z,98266.06
2022-10-01T13:58:29.531Z,98266.00
2022-10-01T14:01:39.587Z,98274.88
2022-10-01T14:04:41.868Z,98273.97
2022-10-01T14:07:43.294Z,98272.22
2022-10-01T14:11:06.014Z,98278.34
2022-10-01T14:14:52.494Z,98280.13
2022-10-01T14:17:53.928Z,98281.84
2022-10-01T14:21:10.638Z,98292.41
2022-10-01T14:24:14.969Z,98284.72
2022-10-01T14:27:35.171Z,98285.66
2022-10-01T14:30:41.352Z,98275.19
2022-10-01T14:33:42.667Z,98272.56
2022-10-01T14:36:51.018Z,98277.88
2022-10-01T14:40:02.218Z,98276.22
2022-10-01T14:43:04.649Z,98271.91
2022-10-01T14:46:06.389Z,98272.72
2022-10-01T14:49:17.120Z,98266.47
2022-10-01T14:52:20.509Z,98268.31
2022-10-01T14:55:22.552Z,98260.44
2022-10-01T14:58:31.023Z,98265.72
2022-10-01T15:01:32.439Z,98262.34
2022-10-01T15:04:33.863Z,98259.63
2022-10-01T15:07:36.621Z,98254.34
2022-10-01T15:10:39.678Z,98250.00
2022-10-01T15:13:41.823Z,98260.34
2022-10-01T15:16:43.202Z,98264.66
2022-10-01T15:19:44.850Z,98274.19
2022-10-01T15:22:47.091Z,98275.09
2022-10-01T15:25:48.507Z,98274.19
2022-10-01T15:28:50.000Z,98277.53
2022-10-01T15:31:51.626Z,98280.97
2022-10-01T15:34:53.853Z,98285.34
2022-10-01T15:37:55.329Z,98286.19
2022-10-01T15:41:14.036Z,98293.91
2022-10-01T15:44:49.944Z,98297.44
2022-10-01T15:47:52.160Z,98308.88
2022-10-01T15:51:00.673Z,98312.34
2022-10-01T15:54:03.490Z,98306.25
2022-10-01T15:57:06.082Z,98307.09
2022-10-01T16:00:15.529Z,98318.53
2022-10-01T16:03:17.502Z,98314.25
2022-10-01T16:06:23.906Z,98322.16
2022-10-01T16:09:27.632Z,98318.72
2022-10-01T16:12:28.988Z,98337.84
2022-10-01T16:15:30.482Z,98346.59
2022-10-01T16:18:34.633Z,98341.53
2022-10-01T16:21:39.750Z,98353.75
2022-10-01T16:24:41.839Z,98358.19
2022-10-01T16:27:47.106Z,98348.69
2022-10-01T16:30:49.970Z,98362.72
2022-10-01T16:33:51.415Z,98366.28
2022-10-01T16:36:52.791Z,98360.97
2022-10-01T16:39:54.174Z,98362.75
2022-10-01T16:42:55.740Z,98371.41
2022-10-01T16:45:59.002Z,98367.09
2022-10-01T16:49:00.396Z,98374.06
2022-10-01T16:52:02.448Z,98370.44
2022-10-01T16:55:04.102Z,98378.38
2022-10-01T16:58:05.934Z,98385.44
2022-10-01T17:01:08.638Z,98381.19
2022-10-01T17:04:11.322Z,98381.28
2022-10-01T17:07:12.667Z,98394.41
2022-10-01T17:10:14.213Z,98383.13
2022-10-01T17:13:15.727Z,98389.34
2022-10-01T17:16:18.723Z,98403.41
2022-10-01T17:19:22.034Z,98403.44
2022-10-01T17:22:23.396Z,98401.75
2022-10-01T17:25:31.912Z,98404.44
2022-10-01T17:28:33.284Z,98418.44
2022-10-01T17:31:35.520Z,98408.91
2022-10-01T17:34:37.331Z,98418.47
2022-10-01T17:37:38.658Z,98419.38
2022-10-01T17:40:41.357Z,98426.44
2022-10-01T17:43:42.713Z,98436.09
2022-10-01T17:46:44.103Z,98437.91
2022-10-01T17:49:45.441Z,98439.59
2022-10-01T17:52:46.933Z,98446.56
2022-10-01T17:55:48.386Z,98444.84
2022-10-01T17:58:49.808Z,98451.78
2022-10-01T18:01:52.682Z,98452.63
2022-10-01T18:04:54.083Z,98462.81
2022-10-01T18:07:55.452Z,98469.63
2022-10-01T18:11:09.874Z,98472.16
2022-10-01T18:14:11.259Z,98460.72
2022-10-01T18:17:12.581Z,98469.41
2022-10-01T18:20:13.921Z,98476.94
2022-10-01T18:23:15.271Z,98475.13
2022-10-01T18:26:16.731Z,98483.09
2022-10-01T18:29:19.293Z,98482.75
2022-10-01T18:32:21.512Z,98497.31
2022-10-01T18:35:28.047Z,98508.56
2022-10-01T18:38:30.133Z,98517.59
2022-10-01T18:41:37.845Z,98511.25
2022-10-01T18:44:39.268Z,98522.56
2022-10-01T18:47:52.725Z,98527.94
2022-10-01T18:51:00.431Z,98533.34
2022-10-01T18:54:04.756Z,98532.41
2022-10-01T18:57:12.143Z,98541.25
2022-10-01T19:00:23.259Z,98560.44
2022-10-01T19:03:48.018Z,98554.31
2022-10-01T19:06:57.879Z,98581.97
2022-10-01T19:10:03.867Z,98591.47
2022-10-01T19:13:13.726Z,98598.56
2022-10-01T19:16:21.039Z,98612.66
2022-10-01T19:19:35.331Z,98614.34
2022-10-01T19:22:55.375Z,98624.03
2022-10-01T19:26:14.253Z,98618.72
2022-10-01T19:29:15.576Z,98629.16
2022-10-01T19:32:17.874Z,98637.13
2022-10-01T19:35:20.037Z,98634.44
2022-10-01T19:38:26.549Z,98639.63
2022-10-01T19:41:29.889Z,98634.59
2022-10-01T19:44:35.733Z,98630.97
2022-10-01T19:48:08.767Z,98630.13
2022-10-01T19:51:12.477Z,98645.03
2022-10-01T19:54:16.425Z,98643.38
2022-10-01T19:57:22.527Z,98650.19
2022-10-01T20:00:23.865Z,98653.81
2022-10-01T20:03:31.270Z,98663.50
2022-10-01T20:06:33.958Z,98660.06
2022-10-01T20:09:35.416Z,98678.31
2022-10-01T20:12:42.094Z,98679.13
2022-10-01T20:15:52.613Z,98688.63
2022-10-01T20:19:00.229Z,98686.06
2022-10-01T20:22:04.409Z,98699.19
2022-10-01T20:25:23.990Z,98702.63
2022-10-01T20:28:27.839Z,98700.84
2022-10-01T20:31:44.252Z,98706.06
2022-10-01T20:34:55.676Z,98706.06
2022-10-01T20:37:58.308Z,98706.25
2022-10-01T20:41:00.669Z,98713.19
2022-10-01T20:44:02.021Z,98713.19
2022-10-01T20:47:03.959Z,98719.25
2022-10-01T20:50:09.306Z,98714.09
2022-10-01T20:53:18.037Z,98722.72
2022-10-01T20:56:21.653Z,98718.50
2022-10-01T20:59:27.689Z,98716.75
2022-10-01T21:02:46.609Z,98715.00
2022-10-01T21:05:53.314Z,98716.75
2022-10-01T21:08:59.648Z,98721.13
2022-10-01T21:12:10.280Z,98731.50
2022-10-01T21:15:12.693Z,98737.56
2022-10-01T21:18:35.716Z,98738.44
2022-10-01T21:21:37.089Z,98752.41
2022-10-01T21:24:49.166Z,98757.63
2022-10-01T21:27:54.826Z,98769.94
2022-10-01T21:31:07.609Z,98769.94
2022-10-01T21:34:13.118Z,98777.81
2022-10-01T21:37:15.693Z,98769.78
2022-10-01T21:40:37.996Z,98772.41
2022-10-01T21:43:46.156Z,98775.22
2022-10-01T21:46:47.475Z,98773.50
2022-10-01T21:50:09.071Z,98772.38
2022-10-01T21:53:28.822Z,98769.06
2022-10-01T21:56:46.246Z,98770.06
2022-10-01T21:59:59.728Z,98781.38
2022-10-01T22:03:19.910Z,98782.28
2022-10-01T22:06:24.007Z,98778.69
2022-10-01T22:09:33.002Z,98789.91
2022-10-01T22:12:34.860Z,98802.94
2022-10-01T22:15:37.165Z,98810.91
2022-10-01T22:18:46.053Z,98810.09
2022-10-01T22:21:48.437Z,98804.03
2022-10-01T22:24:50.687Z,98811.78
2022-10-01T22:27:53.718Z,98805.63
2022-10-01T22:30:55.443Z,98812.69
2022-10-01T22:34:01.147Z,98814.38
2022-10-01T22:37:04.589Z,98811.84
2022-10-01T22:40:14.099Z,98823.31
2022-10-01T22:43:15.489Z,98831.13
2022-10-01T22:46:21.998Z,98828.56
2022-10-01T22:49:26.312Z,98831.13
2022-10-01T22:52:31.196Z,98822.47
2022-10-01T22:55:40.344Z,98831.41
2022-10-01T22:58:52.311Z,98817.53
2022-10-01T23:02:03.335Z,98805.38
2022-10-01T23:05:11.151Z,98797.63
2022-10-01T23:08:31.309Z,98804.66
2022-10-01T23:11:43.112Z,98788.06
2022-10-01T23:14:50.630Z,98788.91
2022-10-01T23:17:54.147Z,98791.47
2022-10-01T23:21:08.327Z,98805.28
2022-10-01T23:24:36.107Z,98819.19
2022-10-01T23:27:56.822Z,98818.34
2022-10-01T23:31:18.516Z,98828.78
2022-10-01T23:34:24.086Z,98828.66
2022-10-01T23:37:44.437Z,98837.41
2022-10-01T23:40:46.209Z,98852.94
2022-10-01T23:43:48.250Z,98858.88
2022-10-01T23:46:50.285Z,98851.13
2022-10-01T23:49:55.137Z,98862.66
2022-10-01T23:53:15.633Z,98875.03
2022-10-01T23:56:37.564Z,98873.34
2022-10-01T23:59:41.463Z,98889.84
